sensor_id;sensor_type;location;lat;lon;timestamp;temperature;humidity
12413;DHT22;13877;18.896;-99.222;2022-12-11T00:00:06;21.60;44.90
12413;DHT22;13877;18.896;-99.222;2022-12-11T00:02:34;21.40;45.00
12413;DHT22;13877;18.896;-99.222;2022-12-11T00:05:01;21.30;45.50
12413;DHT22;13877;18.896;-99.222;2022-12-11T00:07:28;21.20;45.70
12413;DHT22;13877;18.896;-99.222;2022-12-11T00:09:55;21.10;45.80
12413;DHT22;13877;18.896;-99.222;2022-12-11T00:12:22;21.00;44.40
12413;DHT22;13877;18.896;-99.222;2022-12-11T00:14:49;21.10;45.60
12413;DHT22;13877;18.896;-99.222;2022-12-11T00:17:17;21.00;45.40
12413;DHT22;13877;18.896;-99.222;2022-12-11T00:19:44;20.90;45.90
12413;DHT22;13877;18.896;-99.222;2022-12-11T00:22:11;20.80;45.90
12413;DHT22;13877;18.896;-99.222;2022-12-11T00:24:38;20.80;46.30
12413;DHT22;13877;18.896;-99.222;2022-12-11T00:27:05;20.80;45.90
12413;DHT22;13877;18.896;-99.222;2022-12-11T00:29:33;20.80;45.80
12413;DHT22;13877;18.896;-99.222;2022-12-11T00:32:00;20.90;46.20
12413;DHT22;13877;18.896;-99.222;2022-12-11T00:34:27;21.00;46.50
12413;DHT22;13877;18.896;-99.222;2022-12-11T00:36:54;21.00;46.70
12413;DHT22;13877;18.896;-99.222;2022-12-11T00:39:21;21.00;47.40
12413;DHT22;13877;18.896;-99.222;2022-12-11T00:41:48;21.00;48.50
12413;DHT22;13877;18.896;-99.222;2022-12-11T00:44:15;21.00;49.40
12413;DHT22;13877;18.896;-99.222;2022-12-11T00:46:43;21.00;50.10
12413;DHT22;13877;18.896;-99.222;2022-12-11T00:49:10;21.00;50.60
12413;DHT22;13877;18.896;-99.222;2022-12-11T00:51:37;20.90;50.80
12413;DHT22;13877;18.896;-99.222;2022-12-11T00:54:04;20.80;51.00
12413;DHT22;13877;18.896;-99.222;2022-12-11T00:56:33;20.90;51.10
12413;DHT22;13877;18.896;-99.222;2022-12-11T00:59:00;20.80;51.10
12413;DHT22;13877;18.896;-99.222;2022-12-11T01:01:27;20.80;51.30
12413;DHT22;13877;18.896;-99.222;2022-12-11T01:03:54;20.60;51.50
12413;DHT22;13877;18.896;-99.222;2022-12-11T01:06:25;20.50;51.90
12413;DHT22;13877;18.896;-99.222;2022-12-11T01:08:53;20.40;52.10
12413;DHT22;13877;18.896;-99.222;2022-12-11T01:11:46;20.40;52.40
12413;DHT22;13877;18.896;-99.222;2022-12-11T01:14:13;20.30;52.40
12413;DHT22;13877;18.896;-99.222;2022-12-11T01:16:40;20.30;52.20
12413;DHT22;13877;18.896;-99.222;2022-12-11T01:19:07;20.30;52.00
12413;DHT22;13877;18.896;-99.222;2022-12-11T01:21:34;20.30;52.00
12413;DHT22;13877;18.896;-99.222;2022-12-11T01:24:01;20.30;52.00
12413;DHT22;13877;18.896;-99.222;2022-12-11T01:26:29;20.30;52.00
12413;DHT22;13877;18.896;-99.222;2022-12-11T01:28:56;20.20;52.10
12413;DHT22;13877;18.896;-99.222;2022-12-11T01:31:23;20.20;51.90
12413;DHT22;13877;18.896;-99.222;2022-12-11T01:33:53;20.10;51.90
12413;DHT22;13877;18.896;-99.222;2022-12-11T01:36:21;20.00;51.90
12413;DHT22;13877;18.896;-99.222;2022-12-11T01:38:49;20.00;51.90
12413;DHT22;13877;18.896;-99.222;2022-12-11T01:41:17;20.00;51.90
12413;DHT22;13877;18.896;-99.222;2022-12-11T01:46:42;19.90;51.60
12413;DHT22;13877;18.896;-99.222;2022-12-11T01:49:13;19.90;51.20
12413;DHT22;13877;18.896;-99.222;2022-12-11T01:51:52;19.90;50.80
12413;DHT22;13877;18.896;-99.222;2022-12-11T01:54:23;19.90;50.80
12413;DHT22;13877;18.896;-99.222;2022-12-11T01:56:53;19.90;50.60
12413;DHT22;13877;18.896;-99.222;2022-12-11T01:59:23;20.00;50.40
12413;DHT22;13877;18.896;-99.222;2022-12-11T02:02:18;19.90;50.10
12413;DHT22;13877;18.896;-99.222;2022-12-11T02:04:46;19.90;50.00
12413;DHT22;13877;18.896;-99.222;2022-12-11T02:07:14;19.80;50.10
12413;DHT22;13877;18.896;-99.222;2022-12-11T02:09:43;19.80;50.20
12413;DHT22;13877;18.896;-99.222;2022-12-11T02:12:25;19.80;50.20
12413;DHT22;13877;18.896;-99.222;2022-12-11T02:15:10;19.80;50.20
12413;DHT22;13877;18.896;-99.222;2022-12-11T02:17:42;19.80;49.90
12413;DHT22;13877;18.896;-99.222;2022-12-11T02:31:12;20.00;49.90
12413;DHT22;13877;18.896;-99.222;2022-12-11T02:36:24;19.80;50.30
12413;DHT22;13877;18.896;-99.222;2022-12-11T02:38:53;19.70;50.50
12413;DHT22;13877;18.896;-99.222;2022-12-11T02:41:24;19.70;50.70
12413;DHT22;13877;18.896;-99.222;2022-12-11T02:43:52;19.70;50.90
12413;DHT22;13877;18.896;-99.222;2022-12-11T02:46:22;19.70;50.90
12413;DHT22;13877;18.896;-99.222;2022-12-11T02:48:50;19.70;50.80
12413;DHT22;13877;18.896;-99.222;2022-12-11T02:51:28;19.80;50.70
12413;DHT22;13877;18.896;-99.222;2022-12-11T02:53:57;19.80;50.80
12413;DHT22;13877;18.896;-99.222;2022-12-11T02:56:49;19.80;50.70
12413;DHT22;13877;18.896;-99.222;2022-12-11T02:59:22;19.80;50.70
12413;DHT22;13877;18.896;-99.222;2022-12-11T03:01:49;19.90;50.40
12413;DHT22;13877;18.896;-99.222;2022-12-11T03:04:16;19.90;50.30
12413;DHT22;13877;18.896;-99.222;2022-12-11T03:06:48;20.00;49.90
12413;DHT22;13877;18.896;-99.222;2022-12-11T03:09:15;20.00;49.50
12413;DHT22;13877;18.896;-99.222;2022-12-11T03:11:42;20.10;49.60
12413;DHT22;13877;18.896;-99.222;2022-12-11T03:14:09;20.10;49.70
12413;DHT22;13877;18.896;-99.222;2022-12-11T03:16:38;20.10;49.50
12413;DHT22;13877;18.896;-99.222;2022-12-11T03:19:27;20.20;49.50
12413;DHT22;13877;18.896;-99.222;2022-12-11T03:25:16;20.10;49.20
12413;DHT22;13877;18.896;-99.222;2022-12-11T03:30:23;20.10;49.30
12413;DHT22;13877;18.896;-99.222;2022-12-11T03:35:38;20.10;49.10
12413;DHT22;13877;18.896;-99.222;2022-12-11T03:38:30;20.10;49.10
12413;DHT22;13877;18.896;-99.222;2022-12-11T03:41:00;20.10;49.00
12413;DHT22;13877;18.896;-99.222;2022-12-11T03:43:29;20.10;49.70
12413;DHT22;13877;18.896;-99.222;2022-12-11T03:45:58;20.10;49.00
12413;DHT22;13877;18.896;-99.222;2022-12-11T03:48:29;20.10;48.80
12413;DHT22;13877;18.896;-99.222;2022-12-11T03:51:01;20.10;49.00
12413;DHT22;13877;18.896;-99.222;2022-12-11T03:53:31;20.00;48.90
12413;DHT22;13877;18.896;-99.222;2022-12-11T03:55:59;20.00;49.40
12413;DHT22;13877;18.896;-99.222;2022-12-11T03:58:27;20.00;49.40
12413;DHT22;13877;18.896;-99.222;2022-12-11T04:00:55;20.00;49.10
12413;DHT22;13877;18.896;-99.222;2022-12-11T04:03:22;20.00;49.10
12413;DHT22;13877;18.896;-99.222;2022-12-11T04:05:54;20.00;49.10
12413;DHT22;13877;18.896;-99.222;2022-12-11T04:08:22;20.00;49.20
12413;DHT22;13877;18.896;-99.222;2022-12-11T04:10:49;19.90;49.60
12413;DHT22;13877;18.896;-99.222;2022-12-11T04:13:36;19.80;49.20
12413;DHT22;13877;18.896;-99.222;2022-12-11T04:16:03;19.90;49.50
12413;DHT22;13877;18.896;-99.222;2022-12-11T04:18:30;19.90;50.00
12413;DHT22;13877;18.896;-99.222;2022-12-11T04:21:16;19.70;50.20
12413;DHT22;13877;18.896;-99.222;2022-12-11T04:24:02;19.60;50.70
12413;DHT22;13877;18.896;-99.222;2022-12-11T04:26:43;19.40;50.70
12413;DHT22;13877;18.896;-99.222;2022-12-11T04:29:10;19.40;50.80
12413;DHT22;13877;18.896;-99.222;2022-12-11T04:31:37;19.40;50.70
12413;DHT22;13877;18.896;-99.222;2022-12-11T04:34:04;19.40;50.40
12413;DHT22;13877;18.896;-99.222;2022-12-11T04:36:31;19.50;50.30
12413;DHT22;13877;18.896;-99.222;2022-12-11T04:38:58;19.60;49.90
12413;DHT22;13877;18.896;-99.222;2022-12-11T04:41:25;19.70;48.90
12413;DHT22;13877;18.896;-99.222;2022-12-11T04:43:53;19.80;48.40
12413;DHT22;13877;18.896;-99.222;2022-12-11T04:46:22;19.90;48.60
12413;DHT22;13877;18.896;-99.222;2022-12-11T04:48:50;19.80;48.20
12413;DHT22;13877;18.896;-99.222;2022-12-11T04:51:18;19.90;47.90
12413;DHT22;13877;18.896;-99.222;2022-12-11T04:53:45;20.00;47.80
12413;DHT22;13877;18.896;-99.222;2022-12-11T04:56:15;20.00;47.80
12413;DHT22;13877;18.896;-99.222;2022-12-11T04:58:43;20.10;47.40
12413;DHT22;13877;18.896;-99.222;2022-12-11T05:01:20;20.20;47.20
12413;DHT22;13877;18.896;-99.222;2022-12-11T05:03:48;20.20;47.10
12413;DHT22;13877;18.896;-99.222;2022-12-11T05:06:15;20.20;47.30
12413;DHT22;13877;18.896;-99.222;2022-12-11T05:08:43;20.20;47.20
12413;DHT22;13877;18.896;-99.222;2022-12-11T05:11:13;20.20;47.20
12413;DHT22;13877;18.896;-99.222;2022-12-11T05:13:41;20.20;48.60
12413;DHT22;13877;18.896;-99.222;2022-12-11T05:16:11;19.90;50.10
12413;DHT22;13877;18.896;-99.222;2022-12-11T05:18:38;19.70;50.40
12413;DHT22;13877;18.896;-99.222;2022-12-11T05:21:08;19.40;50.50
12413;DHT22;13877;18.896;-99.222;2022-12-11T05:23:36;19.30;50.80
12413;DHT22;13877;18.896;-99.222;2022-12-11T05:26:05;19.20;51.60
12413;DHT22;13877;18.896;-99.222;2022-12-11T05:28:35;19.00;51.50
12413;DHT22;13877;18.896;-99.222;2022-12-11T05:31:06;18.80;52.30
12413;DHT22;13877;18.896;-99.222;2022-12-11T05:33:33;18.70;53.30
12413;DHT22;13877;18.896;-99.222;2022-12-11T05:36:01;18.60;53.30
12413;DHT22;13877;18.896;-99.222;2022-12-11T05:38:28;18.50;51.70
12413;DHT22;13877;18.896;-99.222;2022-12-11T05:41:01;18.70;52.00
12413;DHT22;13877;18.896;-99.222;2022-12-11T05:43:31;18.70;51.90
12413;DHT22;13877;18.896;-99.222;2022-12-11T05:46:11;18.80;51.90
12413;DHT22;13877;18.896;-99.222;2022-12-11T05:48:39;18.80;52.00
12413;DHT22;13877;18.896;-99.222;2022-12-11T05:51:07;18.80;52.50
12413;DHT22;13877;18.896;-99.222;2022-12-11T05:53:39;18.70;52.00
12413;DHT22;13877;18.896;-99.222;2022-12-11T05:56:10;18.70;51.70
12413;DHT22;13877;18.896;-99.222;2022-12-11T05:58:39;18.70;51.90
12413;DHT22;13877;18.896;-99.222;2022-12-11T06:01:11;18.60;51.70
12413;DHT22;13877;18.896;-99.222;2022-12-11T06:03:39;18.70;51.40
12413;DHT22;13877;18.896;-99.222;2022-12-11T06:06:06;18.80;51.70
12413;DHT22;13877;18.896;-99.222;2022-12-11T06:08:34;18.70;51.00
12413;DHT22;13877;18.896;-99.222;2022-12-11T06:11:01;18.70;51.30
12413;DHT22;13877;18.896;-99.222;2022-12-11T06:13:28;18.50;51.60
12413;DHT22;13877;18.896;-99.222;2022-12-11T06:16:02;18.40;52.20
12413;DHT22;13877;18.896;-99.222;2022-12-11T06:18:30;18.40;52.40
12413;DHT22;13877;18.896;-99.222;2022-12-11T06:20:57;18.40;52.30
12413;DHT22;13877;18.896;-99.222;2022-12-11T06:23:24;18.30;52.00
12413;DHT22;13877;18.896;-99.222;2022-12-11T06:25:51;18.40;52.00
12413;DHT22;13877;18.896;-99.222;2022-12-11T06:28:18;18.40;52.10
12413;DHT22;13877;18.896;-99.222;2022-12-11T06:30:45;18.30;52.50
12413;DHT22;13877;18.896;-99.222;2022-12-11T06:33:12;18.10;53.20
12413;DHT22;13877;18.896;-99.222;2022-12-11T06:35:38;18.00;52.90
12413;DHT22;13877;18.896;-99.222;2022-12-11T06:38:05;18.00;53.80
12413;DHT22;13877;18.896;-99.222;2022-12-11T06:40:32;18.00;54.60
12413;DHT22;13877;18.896;-99.222;2022-12-11T06:42:59;17.90;54.90
12413;DHT22;13877;18.896;-99.222;2022-12-11T06:45:26;17.60;56.50
12413;DHT22;13877;18.896;-99.222;2022-12-11T06:47:53;17.40;57.00
12413;DHT22;13877;18.896;-99.222;2022-12-11T06:50:19;17.30;57.10
12413;DHT22;13877;18.896;-99.222;2022-12-11T06:52:46;17.00;57.50
12413;DHT22;13877;18.896;-99.222;2022-12-11T06:55:13;16.80;57.80
12413;DHT22;13877;18.896;-99.222;2022-12-11T06:57:40;16.70;58.00
12413;DHT22;13877;18.896;-99.222;2022-12-11T07:00:08;16.60;58.00
12413;DHT22;13877;18.896;-99.222;2022-12-11T07:02:35;16.70;57.80
12413;DHT22;13877;18.896;-99.222;2022-12-11T07:05:01;16.70;57.20
12413;DHT22;13877;18.896;-99.222;2022-12-11T07:07:29;16.90;57.40
12413;DHT22;13877;18.896;-99.222;2022-12-11T07:09:55;17.30;57.20
12413;DHT22;13877;18.896;-99.222;2022-12-11T07:12:22;17.20;57.30
12413;DHT22;13877;18.896;-99.222;2022-12-11T07:14:49;16.90;57.90
12413;DHT22;13877;18.896;-99.222;2022-12-11T07:17:16;16.80;58.20
12413;DHT22;13877;18.896;-99.222;2022-12-11T07:19:43;16.90;57.80
12413;DHT22;13877;18.896;-99.222;2022-12-11T07:22:10;17.10;58.40
12413;DHT22;13877;18.896;-99.222;2022-12-11T07:24:37;16.80;58.20
12413;DHT22;13877;18.896;-99.222;2022-12-11T07:27:04;16.70;59.50
12413;DHT22;13877;18.896;-99.222;2022-12-11T07:29:31;16.60;59.10
12413;DHT22;13877;18.896;-99.222;2022-12-11T07:31:58;16.50;58.60
12413;DHT22;13877;18.896;-99.222;2022-12-11T07:34:24;16.60;59.00
12413;DHT22;13877;18.896;-99.222;2022-12-11T07:36:52;16.70;58.70
12413;DHT22;13877;18.896;-99.222;2022-12-11T07:39:18;16.70;58.60
12413;DHT22;13877;18.896;-99.222;2022-12-11T07:41:45;16.70;58.40
12413;DHT22;13877;18.896;-99.222;2022-12-11T07:44:15;16.70;58.70
12413;DHT22;13877;18.896;-99.222;2022-12-11T07:46:42;16.80;58.40
12413;DHT22;13877;18.896;-99.222;2022-12-11T07:49:09;16.90;58.40
12413;DHT22;13877;18.896;-99.222;2022-12-11T07:51:37;17.00;58.40
12413;DHT22;13877;18.896;-99.222;2022-12-11T07:54:06;17.10;58.30
12413;DHT22;13877;18.896;-99.222;2022-12-11T07:56:34;17.20;57.60
12413;DHT22;13877;18.896;-99.222;2022-12-11T07:59:03;17.10;57.90
12413;DHT22;13877;18.896;-99.222;2022-12-11T08:01:32;17.10;57.80
12413;DHT22;13877;18.896;-99.222;2022-12-11T08:04:02;17.20;57.70
12413;DHT22;13877;18.896;-99.222;2022-12-11T08:06:32;17.20;57.20
12413;DHT22;13877;18.896;-99.222;2022-12-11T08:09:01;17.30;57.00
12413;DHT22;13877;18.896;-99.222;2022-12-11T08:11:28;17.20;57.10
12413;DHT22;13877;18.896;-99.222;2022-12-11T08:13:56;17.20;57.10
12413;DHT22;13877;18.896;-99.222;2022-12-11T08:16:26;17.30;57.20
12413;DHT22;13877;18.896;-99.222;2022-12-11T08:18:54;17.30;57.20
12413;DHT22;13877;18.896;-99.222;2022-12-11T08:21:25;17.30;56.90
12413;DHT22;13877;18.896;-99.222;2022-12-11T08:23:54;17.30;57.00
12413;DHT22;13877;18.896;-99.222;2022-12-11T08:26:26;17.30;56.80
12413;DHT22;13877;18.896;-99.222;2022-12-11T08:28:54;17.30;56.60
12413;DHT22;13877;18.896;-99.222;2022-12-11T08:31:22;17.50;56.00
12413;DHT22;13877;18.896;-99.222;2022-12-11T08:33:50;17.50;55.50
12413;DHT22;13877;18.896;-99.222;2022-12-11T08:36:19;17.50;55.60
12413;DHT22;13877;18.896;-99.222;2022-12-11T08:38:49;17.50;55.20
12413;DHT22;13877;18.896;-99.222;2022-12-11T08:41:18;17.50;54.50
12413;DHT22;13877;18.896;-99.222;2022-12-11T08:43:49;17.50;54.50
12413;DHT22;13877;18.896;-99.222;2022-12-11T08:46:21;17.30;54.50
12413;DHT22;13877;18.896;-99.222;2022-12-11T08:48:49;17.30;54.20
12413;DHT22;13877;18.896;-99.222;2022-12-11T08:51:20;17.40;53.90
12413;DHT22;13877;18.896;-99.222;2022-12-11T08:53:49;17.40;53.90
12413;DHT22;13877;18.896;-99.222;2022-12-11T08:56:18;17.40;53.90
12413;DHT22;13877;18.896;-99.222;2022-12-11T08:58:46;17.40;53.60
12413;DHT22;13877;18.896;-99.222;2022-12-11T09:01:16;17.30;53.70
12413;DHT22;13877;18.896;-99.222;2022-12-11T09:03:43;17.30;53.70
12413;DHT22;13877;18.896;-99.222;2022-12-11T09:06:13;17.30;53.80
12413;DHT22;13877;18.896;-99.222;2022-12-11T09:08:42;17.20;53.90
12413;DHT22;13877;18.896;-99.222;2022-12-11T09:11:11;17.20;53.90
12413;DHT22;13877;18.896;-99.222;2022-12-11T09:13:40;17.20;54.20
12413;DHT22;13877;18.896;-99.222;2022-12-11T09:16:13;17.00;54.50
12413;DHT22;13877;18.896;-99.222;2022-12-11T09:18:41;16.90;55.00
12413;DHT22;13877;18.896;-99.222;2022-12-11T09:21:10;16.80;55.50
12413;DHT22;13877;18.896;-99.222;2022-12-11T09:23:40;16.70;56.00
12413;DHT22;13877;18.896;-99.222;2022-12-11T09:26:09;16.60;56.10
12413;DHT22;13877;18.896;-99.222;2022-12-11T09:28:37;16.60;56.70
12413;DHT22;13877;18.896;-99.222;2022-12-11T09:31:15;16.50;56.90
12413;DHT22;13877;18.896;-99.222;2022-12-11T09:33:42;16.50;57.30
12413;DHT22;13877;18.896;-99.222;2022-12-11T09:36:10;16.40;57.40
12413;DHT22;13877;18.896;-99.222;2022-12-11T09:38:37;16.40;57.50
12413;DHT22;13877;18.896;-99.222;2022-12-11T09:41:35;16.20;57.80
12413;DHT22;13877;18.896;-99.222;2022-12-11T09:46:30;16.10;58.00
12413;DHT22;13877;18.896;-99.222;2022-12-11T09:48:58;16.10;58.50
12413;DHT22;13877;18.896;-99.222;2022-12-11T09:54:02;15.80;59.80
12413;DHT22;13877;18.896;-99.222;2022-12-11T10:00:05;15.80;59.40
12413;DHT22;13877;18.896;-99.222;2022-12-11T10:05:40;16.10;56.40
12413;DHT22;13877;18.896;-99.222;2022-12-11T10:10:55;16.10;56.20
12413;DHT22;13877;18.896;-99.222;2022-12-11T10:16:43;16.10;55.30
12413;DHT22;13877;18.896;-99.222;2022-12-11T10:19:26;16.10;55.40
12413;DHT22;13877;18.896;-99.222;2022-12-11T10:21:55;16.10;55.30
12413;DHT22;13877;18.896;-99.222;2022-12-11T10:26:58;16.20;55.00
12413;DHT22;13877;18.896;-99.222;2022-12-11T10:29:26;16.30;54.20
12413;DHT22;13877;18.896;-99.222;2022-12-11T10:31:57;16.30;54.00
12413;DHT22;13877;18.896;-99.222;2022-12-11T10:34:40;16.20;54.10
12413;DHT22;13877;18.896;-99.222;2022-12-11T10:37:08;16.20;54.00
12413;DHT22;13877;18.896;-99.222;2022-12-11T10:39:35;16.20;54.30
12413;DHT22;13877;18.896;-99.222;2022-12-11T10:42:13;16.00;54.70
12413;DHT22;13877;18.896;-99.222;2022-12-11T10:44:55;15.80;55.50
12413;DHT22;13877;18.896;-99.222;2022-12-11T10:47:23;15.70;55.80
12413;DHT22;13877;18.896;-99.222;2022-12-11T10:49:58;15.80;55.50
12413;DHT22;13877;18.896;-99.222;2022-12-11T10:52:37;15.80;55.30
12413;DHT22;13877;18.896;-99.222;2022-12-11T10:55:37;15.70;55.40
12413;DHT22;13877;18.896;-99.222;2022-12-11T10:58:05;15.70;55.10
12413;DHT22;13877;18.896;-99.222;2022-12-11T11:00:37;15.80;54.80
12413;DHT22;13877;18.896;-99.222;2022-12-11T11:03:18;15.80;55.00
12413;DHT22;13877;18.896;-99.222;2022-12-11T11:05:46;15.80;54.70
12413;DHT22;13877;18.896;-99.222;2022-12-11T11:08:16;15.80;54.40
12413;DHT22;13877;18.896;-99.222;2022-12-11T11:10:59;15.80;54.00
12413;DHT22;13877;18.896;-99.222;2022-12-11T11:13:29;15.80;53.70
12413;DHT22;13877;18.896;-99.222;2022-12-11T11:16:11;15.90;53.30
12413;DHT22;13877;18.896;-99.222;2022-12-11T11:18:40;15.90;53.40
12413;DHT22;13877;18.896;-99.222;2022-12-11T11:21:15;15.90;53.30
12413;DHT22;13877;18.896;-99.222;2022-12-11T11:23:44;15.80;52.60
12413;DHT22;13877;18.896;-99.222;2022-12-11T11:26:11;15.80;52.40
12413;DHT22;13877;18.896;-99.222;2022-12-11T11:28:51;15.80;51.80
12413;DHT22;13877;18.896;-99.222;2022-12-11T11:31:20;15.90;51.50
12413;DHT22;13877;18.896;-99.222;2022-12-11T11:34:04;15.90;51.30
12413;DHT22;13877;18.896;-99.222;2022-12-11T11:36:33;16.00;50.80
12413;DHT22;13877;18.896;-99.222;2022-12-11T11:44:59;16.00;50.30
12413;DHT22;13877;18.896;-99.222;2022-12-11T11:47:23;16.10;49.90
12413;DHT22;13877;18.896;-99.222;2022-12-11T11:52:43;16.00;50.10
12413;DHT22;13877;18.896;-99.222;2022-12-11T11:55:17;15.80;49.70
12413;DHT22;13877;18.896;-99.222;2022-12-11T11:57:52;15.70;50.00
12413;DHT22;13877;18.896;-99.222;2022-12-11T12:00:26;15.70;49.60
12413;DHT22;13877;18.896;-99.222;2022-12-11T12:02:57;15.80;49.00
12413;DHT22;13877;18.896;-99.222;2022-12-11T12:05:35;15.80;49.00
12413;DHT22;13877;18.896;-99.222;2022-12-11T12:17:17;15.70;49.20
12413;DHT22;13877;18.896;-99.222;2022-12-11T12:21:50;15.50;49.50
12413;DHT22;13877;18.896;-99.222;2022-12-11T12:27:16;15.70;49.40
12413;DHT22;13877;18.896;-99.222;2022-12-11T12:30:05;15.70;49.40
12413;DHT22;13877;18.896;-99.222;2022-12-11T12:32:58;15.50;49.60
12413;DHT22;13877;18.896;-99.222;2022-12-11T12:35:34;15.50;51.20
12413;DHT22;13877;18.896;-99.222;2022-12-11T12:43:24;15.10;54.70
12413;DHT22;13877;18.896;-99.222;2022-12-11T12:46:10;14.90;55.80
12413;DHT22;13877;18.896;-99.222;2022-12-11T12:48:42;14.70;56.70
12413;DHT22;13877;18.896;-99.222;2022-12-11T12:51:14;14.50;57.20
12413;DHT22;13877;18.896;-99.222;2022-12-11T12:53:52;14.30;57.60
12413;DHT22;13877;18.896;-99.222;2022-12-11T12:56:21;14.10;57.80
12413;DHT22;13877;18.896;-99.222;2022-12-11T12:58:49;14.00;57.50
12413;DHT22;13877;18.896;-99.222;2022-12-11T13:01:22;14.10;56.20
12413;DHT22;13877;18.896;-99.222;2022-12-11T13:03:57;14.10;55.70
12413;DHT22;13877;18.896;-99.222;2022-12-11T13:06:44;14.50;56.70
12413;DHT22;13877;18.896;-99.222;2022-12-11T13:09:29;14.50;56.00
12413;DHT22;13877;18.896;-99.222;2022-12-11T13:11:56;14.30;54.70
12413;DHT22;13877;18.896;-99.222;2022-12-11T13:14:28;14.40;54.30
12413;DHT22;13877;18.896;-99.222;2022-12-11T13:19:49;14.50;53.80
12413;DHT22;13877;18.896;-99.222;2022-12-11T13:22:23;14.60;53.50
12413;DHT22;13877;18.896;-99.222;2022-12-11T13:25:02;14.70;53.20
12413;DHT22;13877;18.896;-99.222;2022-12-11T13:27:42;14.90;53.40
12413;DHT22;13877;18.896;-99.222;2022-12-11T13:33:04;15.60;53.70
12413;DHT22;13877;18.896;-99.222;2022-12-11T13:35:33;15.90;53.60
12413;DHT22;13877;18.896;-99.222;2022-12-11T13:38:44;16.10;53.30
12413;DHT22;13877;18.896;-99.222;2022-12-11T13:41:01;16.30;52.90
12413;DHT22;13877;18.896;-99.222;2022-12-11T13:43:32;16.40;53.10
12413;DHT22;13877;18.896;-99.222;2022-12-11T13:46:02;16.60;53.60
12413;DHT22;13877;18.896;-99.222;2022-12-11T13:48:42;16.70;53.50
12413;DHT22;13877;18.896;-99.222;2022-12-11T13:51:20;16.80;54.00
12413;DHT22;13877;18.896;-99.222;2022-12-11T13:53:48;16.90;55.50
12413;DHT22;13877;18.896;-99.222;2022-12-11T13:56:20;17.10;57.00
12413;DHT22;13877;18.896;-99.222;2022-12-11T13:58:48;17.30;55.80
12413;DHT22;13877;18.896;-99.222;2022-12-11T14:01:24;17.60;55.10
12413;DHT22;13877;18.896;-99.222;2022-12-11T14:06:21;18.10;55.00
12413;DHT22;13877;18.896;-99.222;2022-12-11T14:08:52;18.20;55.40
12413;DHT22;13877;18.896;-99.222;2022-12-11T14:11:25;18.60;54.30
12413;DHT22;13877;18.896;-99.222;2022-12-11T14:13:58;18.90;52.70
12413;DHT22;13877;18.896;-99.222;2022-12-11T14:16:26;19.20;53.20
12413;DHT22;13877;18.896;-99.222;2022-12-11T14:18:55;19.20;52.90
12413;DHT22;13877;18.896;-99.222;2022-12-11T14:21:24;19.50;52.80
12413;DHT22;13877;18.896;-99.222;2022-12-11T14:24:00;19.60;52.00
12413;DHT22;13877;18.896;-99.222;2022-12-11T14:26:31;19.40;52.40
12413;DHT22;13877;18.896;-99.222;2022-12-11T14:29:04;19.40;52.90
12413;DHT22;13877;18.896;-99.222;2022-12-11T14:31:40;19.70;52.60
12413;DHT22;13877;18.896;-99.222;2022-12-11T14:34:18;19.90;52.30
12413;DHT22;13877;18.896;-99.222;2022-12-11T14:36:47;19.90;53.20
12413;DHT22;13877;18.896;-99.222;2022-12-11T14:41:59;20.10;53.40
12413;DHT22;13877;18.896;-99.222;2022-12-11T14:44:31;20.10;53.40
12413;DHT22;13877;18.896;-99.222;2022-12-11T14:47:04;20.10;53.80
12413;DHT22;13877;18.896;-99.222;2022-12-11T14:49:59;20.30;53.80
12413;DHT22;13877;18.896;-99.222;2022-12-11T14:52:41;20.40;53.00
12413;DHT22;13877;18.896;-99.222;2022-12-11T14:55:30;20.40;53.40
12413;DHT22;13877;18.896;-99.222;2022-12-11T14:58:02;20.50;53.70
12413;DHT22;13877;18.896;-99.222;2022-12-11T15:00:35;20.80;53.20
12413;DHT22;13877;18.896;-99.222;2022-12-11T15:05:55;21.20;52.30
12413;DHT22;13877;18.896;-99.222;2022-12-11T15:08:30;21.40;51.40
12413;DHT22;13877;18.896;-99.222;2022-12-11T15:13:50;21.70;51.80
12413;DHT22;13877;18.896;-99.222;2022-12-11T15:16:18;21.60;52.10
12413;DHT22;13877;18.896;-99.222;2022-12-11T15:18:48;22.00;51.60
12413;DHT22;13877;18.896;-99.222;2022-12-11T15:21:17;22.40;51.00
12413;DHT22;13877;18.896;-99.222;2022-12-11T15:26:11;22.30;50.50
12413;DHT22;13877;18.896;-99.222;2022-12-11T15:28:38;22.20;50.70
12413;DHT22;13877;18.896;-99.222;2022-12-11T15:31:21;21.90;51.20
12413;DHT22;13877;18.896;-99.222;2022-12-11T15:33:48;22.00;51.20
12413;DHT22;13877;18.896;-99.222;2022-12-11T15:38:55;22.20;51.30
12413;DHT22;13877;18.896;-99.222;2022-12-11T15:41:23;22.60;51.00
12413;DHT22;13877;18.896;-99.222;2022-12-11T15:43:55;22.50;50.60
12413;DHT22;13877;18.896;-99.222;2022-12-11T15:46:23;22.60;50.80
12413;DHT22;13877;18.896;-99.222;2022-12-11T15:48:50;23.00;50.50
12413;DHT22;13877;18.896;-99.222;2022-12-11T15:51:17;23.00;49.90
12413;DHT22;13877;18.896;-99.222;2022-12-11T15:53:44;23.00;50.20
12413;DHT22;13877;18.896;-99.222;2022-12-11T15:56:15;23.10;49.50
12413;DHT22;13877;18.896;-99.222;2022-12-11T15:58:44;23.10;49.30
12413;DHT22;13877;18.896;-99.222;2022-12-11T16:01:11;23.10;50.10
12413;DHT22;13877;18.896;-99.222;2022-12-11T16:03:38;23.20;49.30
12413;DHT22;13877;18.896;-99.222;2022-12-11T16:06:05;23.40;49.50
12413;DHT22;13877;18.896;-99.222;2022-12-11T16:08:33;23.40;49.00
12413;DHT22;13877;18.896;-99.222;2022-12-11T16:10:59;23.90;48.20
12413;DHT22;13877;18.896;-99.222;2022-12-11T16:13:26;24.30;47.20
12413;DHT22;13877;18.896;-99.222;2022-12-11T16:15:53;23.30;48.70
12413;DHT22;13877;18.896;-99.222;2022-12-11T16:18:21;23.20;48.60
12413;DHT22;13877;18.896;-99.222;2022-12-11T16:20:50;23.50;48.90
12413;DHT22;13877;18.896;-99.222;2022-12-11T16:23:17;23.60;47.00
12413;DHT22;13877;18.896;-99.222;2022-12-11T16:25:45;24.20;47.50
12413;DHT22;13877;18.896;-99.222;2022-12-11T16:28:14;23.80;47.40
12413;DHT22;13877;18.896;-99.222;2022-12-11T16:30:42;24.30;46.70
12413;DHT22;13877;18.896;-99.222;2022-12-11T16:33:10;24.30;46.90
12413;DHT22;13877;18.896;-99.222;2022-12-11T16:35:37;24.60;46.50
12413;DHT22;13877;18.896;-99.222;2022-12-11T16:38:03;24.90;45.60
12413;DHT22;13877;18.896;-99.222;2022-12-11T16:40:30;24.60;46.20
12413;DHT22;13877;18.896;-99.222;2022-12-11T16:42:57;24.50;45.70
12413;DHT22;13877;18.896;-99.222;2022-12-11T16:45:25;24.50;45.70
12413;DHT22;13877;18.896;-99.222;2022-12-11T16:47:52;24.70;45.90
12413;DHT22;13877;18.896;-99.222;2022-12-11T16:50:19;24.70;45.90
12413;DHT22;13877;18.896;-99.222;2022-12-11T16:52:47;25.20;45.70
12413;DHT22;13877;18.896;-99.222;2022-12-11T16:55:14;25.10;45.40
12413;DHT22;13877;18.896;-99.222;2022-12-11T16:57:41;25.60;44.80